Beacon, Iowa
Current Conditions -  °F | °C
As of 4:55 PM on Friday 28 Nov 2014 (Local Time) from KOOA Reporting Station
Clear Clear  
Wind Chill: 28°   Ceiling: Unl
Heat Index: 35°   Visibility: 10mi
Dew Point: 30°   Wind: 10mph
Humidity: 82%   Direction: 120°ESE
Pressure: 29.82"   Gusts: NA
Location:  41.28°N, 92.68°W
Report Text: KOOA 282255Z AUTO 12009KT 10SM CLR 02/M01 A2982 RMK AO2 T00181010
Loading
Personal Weather Stations






























Interactive Weather Map New forecast layout! Learn more

10-Day Weather Forecast

Advertisements
Track Severe Weather on mobile